sensor_id;sensor_type;location;lat;lon;timestamp;temperature;humidity
14099;DHT22;7126;48.458;7.930;2023-07-13T00:01:48;22.40;99.90
14099;DHT22;7126;48.458;7.930;2023-07-13T00:04:17;22.40;99.90
14099;DHT22;7126;48.458;7.930;2023-07-13T00:06:44;22.50;99.90
14099;DHT22;7126;48.458;7.930;2023-07-13T00:09:11;22.50;99.90
14099;DHT22;7126;48.458;7.930;2023-07-13T00:11:38;22.50;99.90
14099;DHT22;7126;48.458;7.930;2023-07-13T00:14:04;22.50;99.90
14099;DHT22;7126;48.458;7.930;2023-07-13T00:16:30;22.50;99.90
14099;DHT22;7126;48.458;7.930;2023-07-13T00:18:55;22.40;99.90
14099;DHT22;7126;48.458;7.930;2023-07-13T00:21:21;22.40;99.90
14099;DHT22;7126;48.458;7.930;2023-07-13T00:23:46;22.40;99.90
14099;DHT22;7126;48.458;7.930;2023-07-13T00:26:12;22.40;99.90
14099;DHT22;7126;48.458;7.930;2023-07-13T00:28:39;22.30;99.90
14099;DHT22;7126;48.458;7.930;2023-07-13T00:31:05;22.20;99.90
14099;DHT22;7126;48.458;7.930;2023-07-13T00:33:30;22.20;99.90
14099;DHT22;7126;48.458;7.930;2023-07-13T00:35:56;22.20;99.90
14099;DHT22;7126;48.458;7.930;2023-07-13T00:38:23;22.10;99.90
14099;DHT22;7126;48.458;7.930;2023-07-13T00:40:49;22.20;99.90
14099;DHT22;7126;48.458;7.930;2023-07-13T00:43:17;22.10;99.90
14099;DHT22;7126;48.458;7.930;2023-07-13T00:48:10;22.10;99.90
14099;DHT22;7126;48.458;7.930;2023-07-13T00:50:37;22.10;99.90
14099;DHT22;7126;48.458;7.930;2023-07-13T00:53:02;22.00;99.90
14099;DHT22;7126;48.458;7.930;2023-07-13T00:55:28;21.90;99.90
14099;DHT22;7126;48.458;7.930;2023-07-13T00:57:54;21.80;99.90
14099;DHT22;7126;48.458;7.930;2023-07-13T01:00:22;21.80;99.90
14099;DHT22;7126;48.458;7.930;2023-07-13T01:02:49;21.80;99.90
14099;DHT22;7126;48.458;7.930;2023-07-13T01:05:18;21.70;99.90
14099;DHT22;7126;48.458;7.930;2023-07-13T01:07:45;21.70;99.90
14099;DHT22;7126;48.458;7.930;2023-07-13T01:10:12;21.60;99.90
14099;DHT22;7126;48.458;7.930;2023-07-13T01:12:38;21.60;99.90
14099;DHT22;7126;48.458;7.930;2023-07-13T01:15:04;21.50;99.90
14099;DHT22;7126;48.458;7.930;2023-07-13T01:17:32;21.50;99.90
14099;DHT22;7126;48.458;7.930;2023-07-13T01:19:58;21.40;99.90
14099;DHT22;7126;48.458;7.930;2023-07-13T01:22:26;21.30;99.90
14099;DHT22;7126;48.458;7.930;2023-07-13T01:24:53;21.20;99.90
14099;DHT22;7126;48.458;7.930;2023-07-13T01:27:23;21.10;99.90
14099;DHT22;7126;48.458;7.930;2023-07-13T01:29:52;21.10;99.90
14099;DHT22;7126;48.458;7.930;2023-07-13T01:32:22;21.10;99.90
14099;DHT22;7126;48.458;7.930;2023-07-13T01:34:50;21.00;99.90
14099;DHT22;7126;48.458;7.930;2023-07-13T01:37:16;21.00;99.90
14099;DHT22;7126;48.458;7.930;2023-07-13T01:39:42;20.90;99.90
14099;DHT22;7126;48.458;7.930;2023-07-13T01:42:08;20.80;99.90
14099;DHT22;7126;48.458;7.930;2023-07-13T01:44:34;20.80;99.90
14099;DHT22;7126;48.458;7.930;2023-07-13T01:47:01;20.80;99.90
14099;DHT22;7126;48.458;7.930;2023-07-13T01:49:26;20.90;99.90
14099;DHT22;7126;48.458;7.930;2023-07-13T01:51:52;20.90;99.90
14099;DHT22;7126;48.458;7.930;2023-07-13T01:54:17;21.00;99.90
14099;DHT22;7126;48.458;7.930;2023-07-13T01:56:43;20.90;99.90
14099;DHT22;7126;48.458;7.930;2023-07-13T01:59:09;20.90;99.90
14099;DHT22;7126;48.458;7.930;2023-07-13T02:01:34;21.00;99.90
14099;DHT22;7126;48.458;7.930;2023-07-13T02:04:00;20.90;99.90
14099;DHT22;7126;48.458;7.930;2023-07-13T02:06:25;21.00;99.90
14099;DHT22;7126;48.458;7.930;2023-07-13T02:08:51;20.90;99.90
14099;DHT22;7126;48.458;7.930;2023-07-13T02:11:16;20.80;99.90
14099;DHT22;7126;48.458;7.930;2023-07-13T02:13:43;20.80;99.90
14099;DHT22;7126;48.458;7.930;2023-07-13T02:16:08;20.80;99.90
14099;DHT22;7126;48.458;7.930;2023-07-13T02:18:34;20.70;99.90
14099;DHT22;7126;48.458;7.930;2023-07-13T02:21:00;20.70;99.90
14099;DHT22;7126;48.458;7.930;2023-07-13T02:23:25;20.60;99.90
14099;DHT22;7126;48.458;7.930;2023-07-13T02:25:55;20.50;99.90
14099;DHT22;7126;48.458;7.930;2023-07-13T02:28:21;20.50;99.90
14099;DHT22;7126;48.458;7.930;2023-07-13T02:30:47;20.40;99.90
14099;DHT22;7126;48.458;7.930;2023-07-13T02:33:12;20.40;99.90
14099;DHT22;7126;48.458;7.930;2023-07-13T02:35:38;20.30;99.90
14099;DHT22;7126;48.458;7.930;2023-07-13T02:38:04;20.20;99.90
14099;DHT22;7126;48.458;7.930;2023-07-13T02:40:29;20.10;99.90
14099;DHT22;7126;48.458;7.930;2023-07-13T02:42:58;20.10;99.90
14099;DHT22;7126;48.458;7.930;2023-07-13T02:45:24;20.00;99.90
14099;DHT22;7126;48.458;7.930;2023-07-13T02:47:49;20.00;99.90
14099;DHT22;7126;48.458;7.930;2023-07-13T02:50:15;19.90;99.90
14099;DHT22;7126;48.458;7.930;2023-07-13T02:52:40;19.90;99.90
14099;DHT22;7126;48.458;7.930;2023-07-13T02:55:06;19.80;99.90
14099;DHT22;7126;48.458;7.930;2023-07-13T02:57:32;19.80;99.90
14099;DHT22;7126;48.458;7.930;2023-07-13T03:00:00;19.80;99.90
14099;DHT22;7126;48.458;7.930;2023-07-13T03:02:25;19.80;99.90
14099;DHT22;7126;48.458;7.930;2023-07-13T03:04:54;19.80;99.90
14099;DHT22;7126;48.458;7.930;2023-07-13T03:07:20;19.70;99.90
14099;DHT22;7126;48.458;7.930;2023-07-13T03:09:45;19.70;99.90
14099;DHT22;7126;48.458;7.930;2023-07-13T03:12:11;19.70;99.90
14099;DHT22;7126;48.458;7.930;2023-07-13T03:14:36;19.60;99.90
14099;DHT22;7126;48.458;7.930;2023-07-13T03:17:02;19.60;99.90
14099;DHT22;7126;48.458;7.930;2023-07-13T03:19:28;19.60;99.90
14099;DHT22;7126;48.458;7.930;2023-07-13T03:21:53;19.60;99.90
14099;DHT22;7126;48.458;7.930;2023-07-13T03:24:19;19.60;99.90
14099;DHT22;7126;48.458;7.930;2023-07-13T03:26:45;19.60;99.90
14099;DHT22;7126;48.458;7.930;2023-07-13T03:29:11;19.60;99.90
14099;DHT22;7126;48.458;7.930;2023-07-13T03:31:37;19.60;99.90
14099;DHT22;7126;48.458;7.930;2023-07-13T03:34:03;19.60;99.90
14099;DHT22;7126;48.458;7.930;2023-07-13T03:36:30;19.60;99.90
14099;DHT22;7126;48.458;7.930;2023-07-13T03:38:58;19.60;99.90
14099;DHT22;7126;48.458;7.930;2023-07-13T03:41:25;19.60;99.90
14099;DHT22;7126;48.458;7.930;2023-07-13T03:43:51;19.60;99.90
14099;DHT22;7126;48.458;7.930;2023-07-13T03:46:18;19.60;99.90
14099;DHT22;7126;48.458;7.930;2023-07-13T03:48:47;19.70;99.90
14099;DHT22;7126;48.458;7.930;2023-07-13T03:51:15;19.70;99.90
14099;DHT22;7126;48.458;7.930;2023-07-13T03:53:43;19.70;99.90
14099;DHT22;7126;48.458;7.930;2023-07-13T03:56:09;19.70;99.90
14099;DHT22;7126;48.458;7.930;2023-07-13T03:58:37;19.60;99.90
14099;DHT22;7126;48.458;7.930;2023-07-13T04:01:04;19.60;99.90
14099;DHT22;7126;48.458;7.930;2023-07-13T04:03:31;19.60;99.90
14099;DHT22;7126;48.458;7.930;2023-07-13T04:06:02;19.60;99.90
14099;DHT22;7126;48.458;7.930;2023-07-13T04:08:30;19.60;99.90
14099;DHT22;7126;48.458;7.930;2023-07-13T04:10:57;19.50;99.90
14099;DHT22;7126;48.458;7.930;2023-07-13T04:13:23;19.60;99.90
14099;DHT22;7126;48.458;7.930;2023-07-13T04:15:49;19.60;99.90
14099;DHT22;7126;48.458;7.930;2023-07-13T04:18:15;19.50;99.90
14099;DHT22;7126;48.458;7.930;2023-07-13T04:20:41;19.50;99.90
14099;DHT22;7126;48.458;7.930;2023-07-13T04:23:07;19.50;99.90
14099;DHT22;7126;48.458;7.930;2023-07-13T04:25:32;19.50;99.90
14099;DHT22;7126;48.458;7.930;2023-07-13T04:27:58;19.50;99.90
14099;DHT22;7126;48.458;7.930;2023-07-13T04:30:23;19.50;99.90
14099;DHT22;7126;48.458;7.930;2023-07-13T04:32:51;19.50;99.90
14099;DHT22;7126;48.458;7.930;2023-07-13T04:35:18;19.50;99.90
14099;DHT22;7126;48.458;7.930;2023-07-13T04:37:47;19.50;99.90
14099;DHT22;7126;48.458;7.930;2023-07-13T04:40:16;19.50;99.90
14099;DHT22;7126;48.458;7.930;2023-07-13T04:42:41;19.50;99.90
14099;DHT22;7126;48.458;7.930;2023-07-13T04:45:07;19.50;99.90
14099;DHT22;7126;48.458;7.930;2023-07-13T04:47:33;19.50;99.90
14099;DHT22;7126;48.458;7.930;2023-07-13T04:49:59;19.50;99.90
14099;DHT22;7126;48.458;7.930;2023-07-13T04:52:24;19.50;99.90
14099;DHT22;7126;48.458;7.930;2023-07-13T04:54:50;19.50;99.90
14099;DHT22;7126;48.458;7.930;2023-07-13T04:57:15;19.50;99.90
14099;DHT22;7126;48.458;7.930;2023-07-13T04:59:41;19.60;99.90
14099;DHT22;7126;48.458;7.930;2023-07-13T05:02:07;19.50;99.90
14099;DHT22;7126;48.458;7.930;2023-07-13T05:04:32;19.50;99.90
14099;DHT22;7126;48.458;7.930;2023-07-13T05:06:59;19.50;99.90
14099;DHT22;7126;48.458;7.930;2023-07-13T05:09:25;19.60;99.90
14099;DHT22;7126;48.458;7.930;2023-07-13T05:11:50;19.60;99.90
14099;DHT22;7126;48.458;7.930;2023-07-13T05:14:16;19.60;99.90
14099;DHT22;7126;48.458;7.930;2023-07-13T05:16:42;19.60;99.90
14099;DHT22;7126;48.458;7.930;2023-07-13T05:19:08;19.60;99.90
14099;DHT22;7126;48.458;7.930;2023-07-13T05:21:34;19.60;99.90
14099;DHT22;7126;48.458;7.930;2023-07-13T05:23:59;19.50;99.90
14099;DHT22;7126;48.458;7.930;2023-07-13T05:26:25;19.50;99.90
14099;DHT22;7126;48.458;7.930;2023-07-13T05:28:50;19.50;99.90
14099;DHT22;7126;48.458;7.930;2023-07-13T05:31:16;19.60;99.90
14099;DHT22;7126;48.458;7.930;2023-07-13T05:33:42;19.60;99.90
14099;DHT22;7126;48.458;7.930;2023-07-13T05:36:07;19.60;99.90
14099;DHT22;7126;48.458;7.930;2023-07-13T05:38:33;19.70;99.90
14099;DHT22;7126;48.458;7.930;2023-07-13T05:40:58;19.70;99.90
14099;DHT22;7126;48.458;7.930;2023-07-13T05:43:24;19.80;99.90
14099;DHT22;7126;48.458;7.930;2023-07-13T05:45:53;19.80;99.90
14099;DHT22;7126;48.458;7.930;2023-07-13T05:48:19;19.80;99.90
14099;DHT22;7126;48.458;7.930;2023-07-13T05:50:44;19.80;99.90
14099;DHT22;7126;48.458;7.930;2023-07-13T05:53:11;19.80;99.90
14099;DHT22;7126;48.458;7.930;2023-07-13T05:55:44;19.80;99.90
14099;DHT22;7126;48.458;7.930;2023-07-13T05:58:10;19.80;99.90
14099;DHT22;7126;48.458;7.930;2023-07-13T06:00:36;19.80;99.90
14099;DHT22;7126;48.458;7.930;2023-07-13T06:03:02;19.90;99.90
14099;DHT22;7126;48.458;7.930;2023-07-13T06:05:27;20.00;99.90
14099;DHT22;7126;48.458;7.930;2023-07-13T06:07:54;19.90;99.90
14099;DHT22;7126;48.458;7.930;2023-07-13T06:10:20;20.00;99.90
14099;DHT22;7126;48.458;7.930;2023-07-13T06:12:45;20.00;99.90
14099;DHT22;7126;48.458;7.930;2023-07-13T06:15:11;20.10;99.90
14099;DHT22;7126;48.458;7.930;2023-07-13T06:17:37;20.10;99.90
14099;DHT22;7126;48.458;7.930;2023-07-13T06:20:03;20.10;99.90
14099;DHT22;7126;48.458;7.930;2023-07-13T06:22:28;20.30;99.90
14099;DHT22;7126;48.458;7.930;2023-07-13T06:24:54;20.40;99.90
14099;DHT22;7126;48.458;7.930;2023-07-13T06:27:20;20.60;99.90
14099;DHT22;7126;48.458;7.930;2023-07-13T06:29:45;20.70;99.90
14099;DHT22;7126;48.458;7.930;2023-07-13T06:32:11;20.70;99.90
14099;DHT22;7126;48.458;7.930;2023-07-13T06:34:37;20.80;99.90
14099;DHT22;7126;48.458;7.930;2023-07-13T06:37:02;20.80;99.90
14099;DHT22;7126;48.458;7.930;2023-07-13T06:39:28;20.80;99.90
14099;DHT22;7126;48.458;7.930;2023-07-13T06:41:53;20.90;99.90
14099;DHT22;7126;48.458;7.930;2023-07-13T06:44:19;20.90;99.90
14099;DHT22;7126;48.458;7.930;2023-07-13T06:46:44;20.90;99.90
14099;DHT22;7126;48.458;7.930;2023-07-13T06:49:10;20.90;99.90
14099;DHT22;7126;48.458;7.930;2023-07-13T06:51:35;20.90;99.90
14099;DHT22;7126;48.458;7.930;2023-07-13T06:54:01;21.00;99.90
14099;DHT22;7126;48.458;7.930;2023-07-13T06:56:27;21.00;99.90
14099;DHT22;7126;48.458;7.930;2023-07-13T06:58:52;21.10;99.90
14099;DHT22;7126;48.458;7.930;2023-07-13T07:01:18;21.20;99.90
14099;DHT22;7126;48.458;7.930;2023-07-13T07:03:43;21.30;99.90
14099;DHT22;7126;48.458;7.930;2023-07-13T07:06:20;21.40;99.90
14099;DHT22;7126;48.458;7.930;2023-07-13T07:08:45;21.50;99.90
14099;DHT22;7126;48.458;7.930;2023-07-13T07:11:13;21.60;99.90
14099;DHT22;7126;48.458;7.930;2023-07-13T07:13:39;21.70;99.90
14099;DHT22;7126;48.458;7.930;2023-07-13T07:16:05;21.80;99.90
14099;DHT22;7126;48.458;7.930;2023-07-13T07:18:31;21.90;99.90
14099;DHT22;7126;48.458;7.930;2023-07-13T07:20:56;22.00;99.90
14099;DHT22;7126;48.458;7.930;2023-07-13T07:23:22;22.10;99.90
14099;DHT22;7126;48.458;7.930;2023-07-13T07:25:47;22.10;99.90
14099;DHT22;7126;48.458;7.930;2023-07-13T07:28:15;22.20;99.90
14099;DHT22;7126;48.458;7.930;2023-07-13T07:30:44;22.20;99.90
14099;DHT22;7126;48.458;7.930;2023-07-13T07:33:10;22.40;99.90
14099;DHT22;7126;48.458;7.930;2023-07-13T07:35:35;22.50;99.90
14099;DHT22;7126;48.458;7.930;2023-07-13T07:38:01;22.60;99.90
14099;DHT22;7126;48.458;7.930;2023-07-13T07:40:26;22.70;99.90
14099;DHT22;7126;48.458;7.930;2023-07-13T07:42:52;22.90;99.90
14099;DHT22;7126;48.458;7.930;2023-07-13T07:45:18;22.90;99.90
14099;DHT22;7126;48.458;7.930;2023-07-13T07:47:44;22.90;99.90
14099;DHT22;7126;48.458;7.930;2023-07-13T07:50:10;23.00;99.90
14099;DHT22;7126;48.458;7.930;2023-07-13T07:52:36;23.10;99.90
14099;DHT22;7126;48.458;7.930;2023-07-13T07:55:02;23.10;99.90
14099;DHT22;7126;48.458;7.930;2023-07-13T07:57:27;23.20;99.90
14099;DHT22;7126;48.458;7.930;2023-07-13T07:59:53;23.30;99.90
14099;DHT22;7126;48.458;7.930;2023-07-13T08:02:18;23.40;99.90
14099;DHT22;7126;48.458;7.930;2023-07-13T08:04:44;23.40;99.90
14099;DHT22;7126;48.458;7.930;2023-07-13T08:07:09;23.50;99.90
14099;DHT22;7126;48.458;7.930;2023-07-13T08:09:35;23.60;99.90
14099;DHT22;7126;48.458;7.930;2023-07-13T08:12:01;23.70;99.90
14099;DHT22;7126;48.458;7.930;2023-07-13T08:14:26;23.80;99.90
14099;DHT22;7126;48.458;7.930;2023-07-13T08:16:52;23.90;99.90
14099;DHT22;7126;48.458;7.930;2023-07-13T08:19:17;24.00;99.90
14099;DHT22;7126;48.458;7.930;2023-07-13T08:21:43;24.00;99.90
14099;DHT22;7126;48.458;7.930;2023-07-13T08:24:09;24.10;99.90
14099;DHT22;7126;48.458;7.930;2023-07-13T08:26:35;24.20;99.90
14099;DHT22;7126;48.458;7.930;2023-07-13T08:29:00;24.10;99.90
14099;DHT22;7126;48.458;7.930;2023-07-13T08:31:26;24.10;99.90
14099;DHT22;7126;48.458;7.930;2023-07-13T08:33:52;24.20;99.90
14099;DHT22;7126;48.458;7.930;2023-07-13T08:36:17;24.40;99.90
14099;DHT22;7126;48.458;7.930;2023-07-13T08:38:43;24.60;99.90
14099;DHT22;7126;48.458;7.930;2023-07-13T08:41:15;24.70;99.90
14099;DHT22;7126;48.458;7.930;2023-07-13T08:43:42;24.70;99.90
14099;DHT22;7126;48.458;7.930;2023-07-13T08:46:14;24.60;99.90
14099;DHT22;7126;48.458;7.930;2023-07-13T08:49:06;24.70;99.90
14099;DHT22;7126;48.458;7.930;2023-07-13T08:54:49;25.00;99.90
14099;DHT22;7126;48.458;7.930;2023-07-13T08:57:19;25.10;99.90
14099;DHT22;7126;48.458;7.930;2023-07-13T08:59:47;25.20;99.90
14099;DHT22;7126;48.458;7.930;2023-07-13T09:02:20;25.30;99.90
14099;DHT22;7126;48.458;7.930;2023-07-13T09:05:31;25.50;99.90
14099;DHT22;7126;48.458;7.930;2023-07-13T09:08:24;25.50;99.90
14099;DHT22;7126;48.458;7.930;2023-07-13T09:11:00;25.40;99.90
14099;DHT22;7126;48.458;7.930;2023-07-13T09:13:40;25.50;99.90
14099;DHT22;7126;48.458;7.930;2023-07-13T09:16:10;25.50;99.90
14099;DHT22;7126;48.458;7.930;2023-07-13T09:18:46;25.60;99.90
14099;DHT22;7126;48.458;7.930;2023-07-13T09:21:24;25.70;99.90
14099;DHT22;7126;48.458;7.930;2023-07-13T09:23:54;25.70;99.90
14099;DHT22;7126;48.458;7.930;2023-07-13T09:26:23;25.80;99.90
14099;DHT22;7126;48.458;7.930;2023-07-13T09:28:57;25.80;99.90
14099;DHT22;7126;48.458;7.930;2023-07-13T09:31:33;25.90;99.90
14099;DHT22;7126;48.458;7.930;2023-07-13T09:34:00;26.10;99.90
14099;DHT22;7126;48.458;7.930;2023-07-13T09:36:31;26.10;99.90
14099;DHT22;7126;48.458;7.930;2023-07-13T09:39:10;26.10;99.90
14099;DHT22;7126;48.458;7.930;2023-07-13T09:44:27;26.20;99.90
14099;DHT22;7126;48.458;7.930;2023-07-13T09:46:56;26.30;99.90
14099;DHT22;7126;48.458;7.930;2023-07-13T09:49:26;26.40;99.50
14099;DHT22;7126;48.458;7.930;2023-07-13T09:52:07;26.50;99.90
14099;DHT22;7126;48.458;7.930;2023-07-13T09:54:36;26.70;99.80
14099;DHT22;7126;48.458;7.930;2023-07-13T09:57:11;26.80;98.00
14099;DHT22;7126;48.458;7.930;2023-07-13T09:59:41;26.80;97.10
14099;DHT22;7126;48.458;7.930;2023-07-13T10:02:31;26.90;98.30
14099;DHT22;7126;48.458;7.930;2023-07-13T10:05:02;27.00;98.00
14099;DHT22;7126;48.458;7.930;2023-07-13T10:07:29;27.00;98.00
14099;DHT22;7126;48.458;7.930;2023-07-13T10:09:57;26.90;97.90
14099;DHT22;7126;48.458;7.930;2023-07-13T10:12:24;26.80;96.90
14099;DHT22;7126;48.458;7.930;2023-07-13T10:14:58;26.90;97.80
14099;DHT22;7126;48.458;7.930;2023-07-13T10:17:29;27.10;97.20
14099;DHT22;7126;48.458;7.930;2023-07-13T10:20:03;27.20;96.40
14099;DHT22;7126;48.458;7.930;2023-07-13T10:22:58;27.40;97.70
14099;DHT22;7126;48.458;7.930;2023-07-13T10:25:28;27.60;96.60
14099;DHT22;7126;48.458;7.930;2023-07-13T10:28:21;27.60;96.30
14099;DHT22;7126;48.458;7.930;2023-07-13T10:30:49;27.60;95.70
14099;DHT22;7126;48.458;7.930;2023-07-13T10:33:17;27.80;96.60
14099;DHT22;7126;48.458;7.930;2023-07-13T10:35:43;27.90;94.50
14099;DHT22;7126;48.458;7.930;2023-07-13T10:38:14;28.00;94.80
14099;DHT22;7126;48.458;7.930;2023-07-13T10:40:45;28.10;94.60
14099;DHT22;7126;48.458;7.930;2023-07-13T10:43:17;28.20;96.10
14099;DHT22;7126;48.458;7.930;2023-07-13T10:45:45;28.40;96.10
14099;DHT22;7126;48.458;7.930;2023-07-13T10:48:13;28.40;94.20
14099;DHT22;7126;48.458;7.930;2023-07-13T10:50:43;28.00;93.00
14099;DHT22;7126;48.458;7.930;2023-07-13T10:58:43;26.90;94.10
14099;DHT22;7126;48.458;7.930;2023-07-13T11:01:18;27.00;93.40
14099;DHT22;7126;48.458;7.930;2023-07-13T11:21:25;28.70;90.50
14099;DHT22;7126;48.458;7.930;2023-07-13T11:26:41;28.90;90.60
14099;DHT22;7126;48.458;7.930;2023-07-13T11:29:54;28.90;91.80
14099;DHT22;7126;48.458;7.930;2023-07-13T11:31:56;29.00;88.40
14099;DHT22;7126;48.458;7.930;2023-07-13T11:34:41;28.90;90.60
14099;DHT22;7126;48.458;7.930;2023-07-13T11:37:12;28.70;91.30
14099;DHT22;7126;48.458;7.930;2023-07-13T11:39:42;28.40;91.90
14099;DHT22;7126;48.458;7.930;2023-07-13T11:42:15;28.20;93.40
14099;DHT22;7126;48.458;7.930;2023-07-13T11:44:45;28.00;93.90
14099;DHT22;7126;48.458;7.930;2023-07-13T11:47:16;27.80;94.50
14099;DHT22;7126;48.458;7.930;2023-07-13T11:49:49;27.60;94.30
14099;DHT22;7126;48.458;7.930;2023-07-13T11:52:22;27.50;94.60
14099;DHT22;7126;48.458;7.930;2023-07-13T11:54:54;27.50;96.40
14099;DHT22;7126;48.458;7.930;2023-07-13T11:57:44;27.80;98.00
14099;DHT22;7126;48.458;7.930;2023-07-13T12:00:13;28.20;95.50
14099;DHT22;7126;48.458;7.930;2023-07-13T12:02:49;28.30;93.40
14099;DHT22;7126;48.458;7.930;2023-07-13T12:05:17;28.10;93.60
14099;DHT22;7126;48.458;7.930;2023-07-13T12:07:43;27.90;95.20
14099;DHT22;7126;48.458;7.930;2023-07-13T12:12:47;27.40;92.80
14099;DHT22;7126;48.458;7.930;2023-07-13T12:15:13;27.50;92.50
14099;DHT22;7126;48.458;7.930;2023-07-13T12:17:39;27.70;93.90
14099;DHT22;7126;48.458;7.930;2023-07-13T12:20:20;27.90;93.60
14099;DHT22;7126;48.458;7.930;2023-07-13T12:22:47;28.10;94.20
14099;DHT22;7126;48.458;7.930;2023-07-13T12:25:14;28.00;95.40
14099;DHT22;7126;48.458;7.930;2023-07-13T12:27:40;27.90;95.20
14099;DHT22;7126;48.458;7.930;2023-07-13T12:30:28;28.00;93.10
14099;DHT22;7126;48.458;7.930;2023-07-13T12:35:29;28.00;93.40
14099;DHT22;7126;48.458;7.930;2023-07-13T12:37:57;28.20;94.10
14099;DHT22;7126;48.458;7.930;2023-07-13T12:40:29;28.50;93.40
14099;DHT22;7126;48.458;7.930;2023-07-13T12:42:57;28.70;91.90
14099;DHT22;7126;48.458;7.930;2023-07-13T12:45:25;28.50;91.70
14099;DHT22;7126;48.458;7.930;2023-07-13T12:47:57;28.60;94.20
14099;DHT22;7126;48.458;7.930;2023-07-13T12:50:40;28.60;94.10
14099;DHT22;7126;48.458;7.930;2023-07-13T12:53:13;28.60;93.80
14099;DHT22;7126;48.458;7.930;2023-07-13T12:55:44;28.60;92.70
14099;DHT22;7126;48.458;7.930;2023-07-13T12:58:27;28.40;93.50
14099;DHT22;7126;48.458;7.930;2023-07-13T13:00:55;28.20;94.10
14099;DHT22;7126;48.458;7.930;2023-07-13T13:03:33;28.10;93.90
14099;DHT22;7126;48.458;7.930;2023-07-13T13:06:00;28.10;94.60
14099;DHT22;7126;48.458;7.930;2023-07-13T13:08:26;28.00;94.30
14099;DHT22;7126;48.458;7.930;2023-07-13T13:10:51;28.00;94.50
14099;DHT22;7126;48.458;7.930;2023-07-13T13:13:17;27.80;93.60
14099;DHT22;7126;48.458;7.930;2023-07-13T13:15:43;27.80;93.50
14099;DHT22;7126;48.458;7.930;2023-07-13T13:18:15;27.70;93.90
14099;DHT22;7126;48.458;7.930;2023-07-13T13:20:41;27.60;93.10
14099;DHT22;7126;48.458;7.930;2023-07-13T13:23:15;27.50;94.60
14099;DHT22;7126;48.458;7.930;2023-07-13T13:25:43;27.30;95.60
14099;DHT22;7126;48.458;7.930;2023-07-13T13:28:14;27.20;94.80
14099;DHT22;7126;48.458;7.930;2023-07-13T13:30:42;27.10;94.30
14099;DHT22;7126;48.458;7.930;2023-07-13T13:33:11;27.10;93.80
14099;DHT22;7126;48.458;7.930;2023-07-13T13:35:38;27.30;93.50
14099;DHT22;7126;48.458;7.930;2023-07-13T13:38:13;27.60;92.10
14099;DHT22;7126;48.458;7.930;2023-07-13T13:40:40;27.90;93.90
14099;DHT22;7126;48.458;7.930;2023-07-13T13:43:25;28.30;94.00
14099;DHT22;7126;48.458;7.930;2023-07-13T13:45:56;28.60;94.60
14099;DHT22;7126;48.458;7.930;2023-07-13T13:48:34;28.60;91.10
14099;DHT22;7126;48.458;7.930;2023-07-13T13:51:09;28.50;91.70
14099;DHT22;7126;48.458;7.930;2023-07-13T13:53:37;28.30;92.70
14099;DHT22;7126;48.458;7.930;2023-07-13T13:56:04;28.10;92.50
14099;DHT22;7126;48.458;7.930;2023-07-13T13:58:30;28.10;93.40
14099;DHT22;7126;48.458;7.930;2023-07-13T14:00:56;28.20;94.50
14099;DHT22;7126;48.458;7.930;2023-07-13T14:03:23;28.30;94.60
14099;DHT22;7126;48.458;7.930;2023-07-13T14:05:49;28.30;91.70
14099;DHT22;7126;48.458;7.930;2023-07-13T14:08:18;28.50;91.30
14099;DHT22;7126;48.458;7.930;2023-07-13T14:10:46;28.60;92.20
14099;DHT22;7126;48.458;7.930;2023-07-13T14:13:17;28.70;93.50
14099;DHT22;7126;48.458;7.930;2023-07-13T14:15:44;28.80;91.60
14099;DHT22;7126;48.458;7.930;2023-07-13T14:18:10;28.80;90.00
14099;DHT22;7126;48.458;7.930;2023-07-13T14:20:37;28.80;88.80
14099;DHT22;7126;48.458;7.930;2023-07-13T14:23:03;28.90;90.70
14099;DHT22;7126;48.458;7.930;2023-07-13T14:25:28;29.10;90.60
14099;DHT22;7126;48.458;7.930;2023-07-13T14:27:57;29.10;87.90
14099;DHT22;7126;48.458;7.930;2023-07-13T14:30:25;29.00;92.20
14099;DHT22;7126;48.458;7.930;2023-07-13T14:32:51;28.90;92.60
14099;DHT22;7126;48.458;7.930;2023-07-13T14:35:21;28.90;90.80
14099;DHT22;7126;48.458;7.930;2023-07-13T14:37:48;28.90;89.00
14099;DHT22;7126;48.458;7.930;2023-07-13T14:40:16;28.80;89.80
14099;DHT22;7126;48.458;7.930;2023-07-13T14:42:42;28.70;91.40
14099;DHT22;7126;48.458;7.930;2023-07-13T14:45:13;28.70;90.80
14099;DHT22;7126;48.458;7.930;2023-07-13T14:47:39;28.60;91.60
14099;DHT22;7126;48.458;7.930;2023-07-13T14:50:05;28.50;92.00
14099;DHT22;7126;48.458;7.930;2023-07-13T14:52:30;28.60;91.30
14099;DHT22;7126;48.458;7.930;2023-07-13T14:54:56;28.60;91.10
14099;DHT22;7126;48.458;7.930;2023-07-13T14:57:21;28.50;91.10
14099;DHT22;7126;48.458;7.930;2023-07-13T14:59:48;28.50;91.50
14099;DHT22;7126;48.458;7.930;2023-07-13T15:04:39;28.20;90.20
14099;DHT22;7126;48.458;7.930;2023-07-13T15:07:05;28.10;91.50
14099;DHT22;7126;48.458;7.930;2023-07-13T15:09:30;27.90;92.10
14099;DHT22;7126;48.458;7.930;2023-07-13T15:11:57;27.90;92.30
14099;DHT22;7126;48.458;7.930;2023-07-13T15:14:23;28.10;91.00
14099;DHT22;7126;48.458;7.930;2023-07-13T15:16:52;28.20;90.20
14099;DHT22;7126;48.458;7.930;2023-07-13T15:19:19;28.30;88.30
14099;DHT22;7126;48.458;7.930;2023-07-13T15:21:46;28.20;91.10
14099;DHT22;7126;48.458;7.930;2023-07-13T15:24:13;28.10;90.90
14099;DHT22;7126;48.458;7.930;2023-07-13T15:26:39;28.00;90.50
14099;DHT22;7126;48.458;7.930;2023-07-13T15:29:05;27.90;91.30
14099;DHT22;7126;48.458;7.930;2023-07-13T15:31:32;27.80;92.00
14099;DHT22;7126;48.458;7.930;2023-07-13T15:33:59;28.00;92.70
14099;DHT22;7126;48.458;7.930;2023-07-13T15:36:26;28.10;93.30
14099;DHT22;7126;48.458;7.930;2023-07-13T15:38:54;28.20;92.50
14099;DHT22;7126;48.458;7.930;2023-07-13T15:41:23;28.10;93.40
14099;DHT22;7126;48.458;7.930;2023-07-13T15:43:50;28.10;92.80
14099;DHT22;7126;48.458;7.930;2023-07-13T15:46:18;27.90;93.30
14099;DHT22;7126;48.458;7.930;2023-07-13T15:48:45;27.80;92.40
14099;DHT22;7126;48.458;7.930;2023-07-13T15:51:24;27.70;92.50
14099;DHT22;7126;48.458;7.930;2023-07-13T15:53:52;27.60;91.90
14099;DHT22;7126;48.458;7.930;2023-07-13T15:56:24;27.50;91.90
14099;DHT22;7126;48.458;7.930;2023-07-13T15:58:51;27.40;91.70
14099;DHT22;7126;48.458;7.930;2023-07-13T16:01:17;27.30;92.20
14099;DHT22;7126;48.458;7.930;2023-07-13T16:03:46;27.30;92.20
14099;DHT22;7126;48.458;7.930;2023-07-13T16:06:18;27.20;92.40
14099;DHT22;7126;48.458;7.930;2023-07-13T16:08:45;27.20;92.30
14099;DHT22;7126;48.458;7.930;2023-07-13T16:11:17;27.10;93.60
14099;DHT22;7126;48.458;7.930;2023-07-13T16:13:44;27.00;91.70
14099;DHT22;7126;48.458;7.930;2023-07-13T16:16:12;27.00;91.80
14099;DHT22;7126;48.458;7.930;2023-07-13T16:18:38;26.90;91.30
14099;DHT22;7126;48.458;7.930;2023-07-13T16:21:10;26.90;91.40
14099;DHT22;7126;48.458;7.930;2023-07-13T16:23:36;26.90;92.10
14099;DHT22;7126;48.458;7.930;2023-07-13T16:26:03;26.80;93.30
14099;DHT22;7126;48.458;7.930;2023-07-13T16:28:29;26.80;93.40
14099;DHT22;7126;48.458;7.930;2023-07-13T16:30:56;26.80;93.00
14099;DHT22;7126;48.458;7.930;2023-07-13T16:33:21;27.00;93.10